Hurley, South Dakota
Current Conditions -  °F | °C
As of 10:56 AM on Friday 21 Nov 2014 (Local Time) from KFSD Reporting Station
Broken Clouds Broken Clouds  
Wind Chill: 15°   Ceiling: 22000
Heat Index: 28°   Visibility: 10mi
Dew Point: 20°   Wind: 21mph
Humidity: 72%   Direction: 190°S
Pressure: 30.02"   Gusts: 30mph
Location:  43.28°N, 97.09°W
Report Text: KFSD 211656Z 19018G26KT 10SM BKN220 M02/M07 A3002 RMK AO2 PK WND 20032/1559 SLP191 T10221067
Loading
Personal Weather Stations






























Interactive Weather Map New forecast layout! Learn more

10-Day Weather Forecast

Advertisements
Track Severe Weather on mobile